createdAt,value
2022-09-01T00:00:31.196Z,94.60
2022-09-01T00:02:59.529Z,94.60
2022-09-01T00:05:28.096Z,94.40
2022-09-01T00:07:56.504Z,94.50
2022-09-01T00:15:23.726Z,94.50
2022-09-01T00:17:51.930Z,94.60
2022-09-01T00:20:20.947Z,94.50
2022-09-01T00:22:49.743Z,94.40
2022-09-01T00:25:20.436Z,94.50
2022-09-01T00:27:51.669Z,94.50
2022-09-01T00:30:20.263Z,94.50
2022-09-01T00:32:49.049Z,94.60
2022-09-01T00:35:19.749Z,94.50
2022-09-01T00:37:48.034Z,94.60
2022-09-01T00:40:18.739Z,94.60
2022-09-01T00:45:19.418Z,94.60
2022-09-01T00:50:20.403Z,94.60
2022-09-01T00:52:52.994Z,94.60
2022-09-01T00:55:29.984Z,94.80
2022-09-01T00:58:02.880Z,94.80
2022-09-01T01:00:40.957Z,94.90
2022-09-01T01:03:10.888Z,94.90
2022-09-01T01:05:41.585Z,95.00
2022-09-01T01:08:12.176Z,95.10
2022-09-01T01:10:43.187Z,95.10
2022-09-01T01:13:14.078Z,95.20
2022-09-01T01:15:45.089Z,95.20
2022-09-01T01:18:13.604Z,95.10
2022-09-01T01:21:00.061Z,95.20
2022-09-01T01:23:39.253Z,95.20
2022-09-01T01:26:10.850Z,95.20
2022-09-01T01:28:40.641Z,95.20
2022-09-01T01:31:12.748Z,95.30
2022-09-01T01:33:44.715Z,95.40
2022-09-01T01:36:16.109Z,95.40
2022-09-01T01:38:47.693Z,95.40
2022-09-01T01:41:20.046Z,95.50
2022-09-01T01:43:51.137Z,95.60
2022-09-01T01:46:20.641Z,95.60
2022-09-01T01:48:50.601Z,95.70
2022-09-01T01:51:21.338Z,95.90
2022-09-01T01:53:52.850Z,95.80
2022-09-01T01:56:25.775Z,95.80
2022-09-01T02:01:28.834Z,96.10
2022-09-01T02:06:29.734Z,96.20
2022-09-01T02:09:03.087Z,96.20
2022-09-01T02:11:34.209Z,96.20
2022-09-01T02:14:03.085Z,96.30
2022-09-01T02:16:33.129Z,96.30
2022-09-01T02:19:07.233Z,96.30
2022-09-01T02:24:08.580Z,96.60
2022-09-01T02:26:42.992Z,96.60
2022-09-01T02:29:18.207Z,96.70
2022-09-01T02:31:48.694Z,96.70
2022-09-01T02:34:18.140Z,96.90
2022-09-01T02:36:49.642Z,97.00
2022-09-01T02:39:19.958Z,97.10
2022-09-01T02:41:49.838Z,97.10
2022-09-01T02:44:19.243Z,97.20
2022-09-01T02:46:48.385Z,97.20
2022-09-01T02:49:19.893Z,97.20
2022-09-01T02:51:54.009Z,97.20
2022-09-01T02:54:24.662Z,97.20
2022-09-01T02:56:54.936Z,97.30
2022-09-01T02:59:24.827Z,97.40
2022-09-01T03:04:24.503Z,97.70
2022-09-01T03:09:24.193Z,97.80
2022-09-01T03:11:54.965Z,97.80
2022-09-01T03:14:24.505Z,97.90
2022-09-01T03:16:53.094Z,97.90
2022-09-01T03:19:43.901Z,98.00
2022-09-01T03:27:11.833Z,98.30
2022-09-01T03:29:40.230Z,98.50
2022-09-01T03:32:08.736Z,98.50
2022-09-01T03:34:37.122Z,98.70
2022-09-01T03:39:36.768Z,98.90
2022-09-01T03:42:05.324Z,99.00
2022-09-01T03:44:35.426Z,99.00
2022-09-01T03:47:03.802Z,99.10
2022-09-01T03:49:33.369Z,99.20
2022-09-01T03:54:33.081Z,99.30
2022-09-01T04:02:00.427Z,99.60
2022-09-01T04:04:31.475Z,99.90
2022-09-01T04:07:00.264Z,99.90
2022-09-01T04:09:29.285Z,99.90
2022-09-01T04:11:57.714Z,99.90
2022-09-01T04:14:29.213Z,99.90
2022-09-01T04:17:17.682Z,99.90
2022-09-01T04:20:08.890Z,99.90
2022-09-01T04:22:38.259Z,99.90
2022-09-01T04:25:07.318Z,99.90
2022-09-01T04:27:36.255Z,99.90
2022-09-01T04:32:35.800Z,99.90
2022-09-01T04:35:04.308Z,99.90
2022-09-01T04:42:32.520Z,99.90
2022-09-01T04:47:42.261Z,99.90
2022-09-01T04:50:17.748Z,99.90
2022-09-01T04:52:47.764Z,99.90
2022-09-01T04:55:18.822Z,99.90
2022-09-01T04:57:49.397Z,99.90
2022-09-01T05:00:23.462Z,99.90
2022-09-01T05:02:54.825Z,99.90
2022-09-01T05:05:24.576Z,99.90
2022-09-01T05:10:30.039Z,99.90
2022-09-01T05:12:58.663Z,99.90
2022-09-01T05:15:27.076Z,99.90
2022-09-01T05:18:00.099Z,99.90
2022-09-01T05:20:30.253Z,99.90
2022-09-01T05:25:27.501Z,99.90
2022-09-01T05:27:55.897Z,99.90
2022-09-01T05:32:58.395Z,99.90
2022-09-01T05:38:02.525Z,99.90
2022-09-01T05:40:31.100Z,99.90
2022-09-01T05:42:59.457Z,99.90
2022-09-01T05:45:28.307Z,99.90
2022-09-01T05:47:59.846Z,99.90
2022-09-01T05:55:22.999Z,99.90
2022-09-01T05:57:52.543Z,99.90
2022-09-01T06:00:21.533Z,99.90
2022-09-01T06:02:50.390Z,99.90
2022-09-01T06:05:19.204Z,99.90
2022-09-01T06:07:47.418Z,99.90
2022-09-01T06:10:16.146Z,99.90
2022-09-01T06:12:48.697Z,99.90
2022-09-01T06:15:21.304Z,99.90
2022-09-01T06:20:19.156Z,99.90
2022-09-01T06:22:47.892Z,99.90
2022-09-01T06:25:17.464Z,99.90
2022-09-01T06:27:48.304Z,99.90
2022-09-01T06:30:23.836Z,99.90
2022-09-01T06:32:53.958Z,99.90
2022-09-01T06:35:25.227Z,99.90
2022-09-01T06:37:53.447Z,99.90
2022-09-01T06:40:21.633Z,99.90
2022-09-01T06:42:53.334Z,99.90
2022-09-01T06:45:23.189Z,99.90
2022-09-01T06:47:59.433Z,99.90
2022-09-01T06:56:09.975Z,98.70
2022-09-01T06:58:40.436Z,98.90
2022-09-01T07:01:12.054Z,98.20
2022-09-01T07:03:40.621Z,97.60
2022-09-01T07:06:58.661Z,97.20
2022-09-01T07:17:30.936Z,97.60
2022-09-01T07:20:23.340Z,97.70
2022-09-01T07:23:05.594Z,97.60
2022-09-01T07:26:01.178Z,97.90
2022-09-01T07:28:39.907Z,97.10
2022-09-01T07:39:55.493Z,96.80
2022-09-01T07:45:29.595Z,96.20
2022-09-01T07:48:06.597Z,96.10
2022-09-01T07:51:34.218Z,96.00
2022-09-01T07:53:29.778Z,95.60
2022-09-01T07:55:59.501Z,95.50
2022-09-01T07:58:31.581Z,95.50
2022-09-01T08:01:02.550Z,95.30
2022-09-01T08:03:32.261Z,95.40
2022-09-01T08:06:06.776Z,95.00
2022-09-01T08:08:36.551Z,94.40
2022-09-01T08:13:41.651Z,91.80
2022-09-01T08:16:19.086Z,91.80
2022-09-01T08:18:49.779Z,91.40
2022-09-01T08:21:22.262Z,91.40
2022-09-01T08:23:51.721Z,91.70
2022-09-01T08:26:27.667Z,91.80
2022-09-01T08:28:59.027Z,91.70
2022-09-01T08:31:31.332Z,91.00
2022-09-01T08:34:01.162Z,91.10
2022-09-01T08:41:47.334Z,90.80
2022-09-01T08:44:24.069Z,90.90
2022-09-01T08:47:02.472Z,90.90
2022-09-01T08:49:42.912Z,90.30
2022-09-01T08:52:25.542Z,89.90
2022-09-01T08:55:03.731Z,89.40
2022-09-01T08:57:35.602Z,88.90
2022-09-01T09:00:10.008Z,89.20
2022-09-01T09:02:52.166Z,88.80
2022-09-01T09:05:43.084Z,89.20
2022-09-01T09:08:41.141Z,89.00
2022-09-01T09:11:18.339Z,89.80
2022-09-01T09:14:01.934Z,88.90
2022-09-01T09:16:39.104Z,87.40
2022-09-01T09:19:14.498Z,87.10
2022-09-01T09:21:58.567Z,86.70
2022-09-01T09:24:52.523Z,86.00
2022-09-01T09:28:00.533Z,85.20
2022-09-01T09:33:52.100Z,83.20
2022-09-01T09:36:29.872Z,83.70
2022-09-01T09:39:54.170Z,81.40
2022-09-01T09:42:36.367Z,79.70
2022-09-01T09:45:23.984Z,80.60
2022-09-01T09:50:26.309Z,80.50
2022-09-01T09:53:14.751Z,78.90
2022-09-01T09:56:34.502Z,77.30
2022-09-01T09:59:29.326Z,77.30
2022-09-01T10:02:35.869Z,77.10
2022-09-01T10:06:01.923Z,78.40
2022-09-01T10:09:01.246Z,79.10
2022-09-01T10:11:50.019Z,77.20
2022-09-01T10:14:47.962Z,76.90
2022-09-01T10:17:20.474Z,74.40
2022-09-01T10:25:32.298Z,71.30
2022-09-01T10:28:20.956Z,71.40
2022-09-01T10:30:53.366Z,69.10
2022-09-01T10:33:24.966Z,66.80
2022-09-01T10:36:02.397Z,67.60
2022-09-01T10:39:04.618Z,68.80
2022-09-01T10:45:02.319Z,67.90
2022-09-01T10:47:37.084Z,68.70
2022-09-01T10:50:10.316Z,69.10
2022-09-01T10:53:04.894Z,68.20
2022-09-01T10:55:42.647Z,66.30
2022-09-01T11:02:34.929Z,66.70
2022-09-01T11:05:28.033Z,64.90
2022-09-01T11:08:01.584Z,66.10
2022-09-01T11:10:47.741Z,65.70
2022-09-01T11:13:49.718Z,67.30
2022-09-01T11:16:48.001Z,68.40
2022-09-01T11:19:36.240Z,68.50
2022-09-01T11:22:22.117Z,69.30
2022-09-01T11:25:00.116Z,69.70
2022-09-01T11:28:04.481Z,71.30
2022-09-01T11:30:52.188Z,70.00
2022-09-01T11:33:41.591Z,69.30
2022-09-01T11:36:18.869Z,69.50
2022-09-01T11:38:58.030Z,69.70
2022-09-01T11:41:50.665Z,70.30
2022-09-01T11:44:26.663Z,69.50
2022-09-01T11:47:09.581Z,67.40
2022-09-01T11:49:48.869Z,67.20
2022-09-01T11:52:20.162Z,67.80
2022-09-01T11:54:49.472Z,67.10
2022-09-01T11:57:25.363Z,65.50
2022-09-01T11:59:54.203Z,65.90
2022-09-01T12:02:25.943Z,66.40
2022-09-01T12:04:56.439Z,67.30
2022-09-01T12:07:39.465Z,67.60
2022-09-01T12:10:20.106Z,67.40
2022-09-01T12:12:48.827Z,67.70
2022-09-01T12:15:22.962Z,66.80
2022-09-01T12:17:52.034Z,67.30
2022-09-01T12:20:31.847Z,67.90
2022-09-01T12:23:02.448Z,66.60
2022-09-01T12:25:34.362Z,67.30
2022-09-01T12:28:04.030Z,66.20
2022-09-01T12:30:35.548Z,66.20
2022-09-01T12:33:23.611Z,64.90
2022-09-01T12:36:10.315Z,65.20
2022-09-01T12:38:40.022Z,65.40
2022-09-01T12:41:36.038Z,65.10
2022-09-01T12:44:30.467Z,65.00
2022-09-01T12:47:00.958Z,66.00
2022-09-01T12:50:03.485Z,64.70
2022-09-01T12:52:33.811Z,65.20
2022-09-01T12:58:07.896Z,64.60
2022-09-01T13:00:39.154Z,63.80
2022-09-01T13:03:14.717Z,63.70
2022-09-01T13:05:47.192Z,62.50
2022-09-01T13:08:18.768Z,63.60
2022-09-01T13:10:51.766Z,62.60
2022-09-01T13:13:21.360Z,62.30
2022-09-01T13:15:52.300Z,62.50
2022-09-01T13:18:22.030Z,62.10
2022-09-01T13:23:35.606Z,62.30
2022-09-01T13:26:05.685Z,62.90
2022-09-01T13:28:36.442Z,63.90
2022-09-01T13:34:22.377Z,63.10
2022-09-01T13:36:48.326Z,62.10
2022-09-01T13:39:20.594Z,61.10
2022-09-01T13:41:51.396Z,59.90
2022-09-01T13:44:19.912Z,60.50
2022-09-01T13:50:06.500Z,60.50
2022-09-01T13:52:26.279Z,58.90
2022-09-01T13:54:55.048Z,59.40
2022-09-01T13:57:26.191Z,60.50
2022-09-01T13:59:56.635Z,59.90
2022-09-01T14:02:27.324Z,60.30
2022-09-01T14:04:57.851Z,59.80
2022-09-01T14:07:25.949Z,60.00
2022-09-01T14:09:55.119Z,59.10
2022-09-01T14:15:12.376Z,58.30
2022-09-01T14:17:45.701Z,59.40
2022-09-01T14:20:18.347Z,58.30
2022-09-01T14:22:47.543Z,57.70
2022-09-01T14:25:17.316Z,57.90
2022-09-01T14:27:48.066Z,57.10
2022-09-01T14:30:19.689Z,54.60
2022-09-01T14:32:48.153Z,55.60
2022-09-01T14:35:17.194Z,56.10
2022-09-01T14:37:46.237Z,55.90
2022-09-01T14:40:17.179Z,56.00
2022-09-01T14:42:50.019Z,55.10
2022-09-01T14:45:19.743Z,55.50
2022-09-01T14:47:48.684Z,57.00
2022-09-01T14:50:21.765Z,57.20
2022-09-01T14:52:54.817Z,56.30
2022-09-01T14:55:24.114Z,57.60
2022-09-01T14:57:55.190Z,58.20
2022-09-01T15:00:26.390Z,57.60
2022-09-01T15:02:56.410Z,58.80
2022-09-01T15:05:26.430Z,57.00
2022-09-01T15:07:55.640Z,56.80
2022-09-01T15:10:27.790Z,56.40
2022-09-01T15:13:01.264Z,57.00
2022-09-01T15:15:30.412Z,57.70
2022-09-01T15:18:00.311Z,57.50
2022-09-01T15:23:39.018Z,56.40
2022-09-01T15:26:07.426Z,55.40
2022-09-01T15:28:37.428Z,56.30
2022-09-01T15:31:07.385Z,56.70
2022-09-01T15:36:06.865Z,55.60
2022-09-01T15:38:35.270Z,55.40
2022-09-01T15:41:03.564Z,55.20
2022-09-01T15:43:32.162Z,55.50
2022-09-01T15:46:05.353Z,54.10
2022-09-01T15:48:33.627Z,54.00
2022-09-01T15:51:29.433Z,54.10
2022-09-01T15:54:02.481Z,53.50
2022-09-01T15:56:32.519Z,53.90
2022-09-01T15:59:02.212Z,54.00
2022-09-01T16:01:34.979Z,54.40
2022-09-01T16:04:04.652Z,53.30
2022-09-01T16:06:34.479Z,53.00
2022-09-01T16:11:32.040Z,53.30
2022-09-01T16:14:01.931Z,53.70
2022-09-01T16:16:42.627Z,54.00
2022-09-01T16:19:25.214Z,53.60
2022-09-01T16:22:01.241Z,54.40
2022-09-01T16:24:30.035Z,54.40
2022-09-01T16:26:59.556Z,53.80
2022-09-01T16:29:36.142Z,54.20
2022-09-01T16:32:06.719Z,54.00
2022-09-01T16:37:10.123Z,55.60
2022-09-01T16:39:47.255Z,54.10
2022-09-01T16:42:26.331Z,54.20
2022-09-01T16:45:04.890Z,54.10
2022-09-01T16:47:46.446Z,54.20
2022-09-01T16:50:28.858Z,54.40
2022-09-01T16:53:11.074Z,53.60
2022-09-01T16:55:51.834Z,54.30
2022-09-01T16:58:25.734Z,54.10
2022-09-01T17:01:02.187Z,54.30
2022-09-01T17:03:42.725Z,54.90
2022-09-01T17:06:18.595Z,54.80
2022-09-01T17:08:55.432Z,54.50
2022-09-01T17:11:34.542Z,54.60
2022-09-01T17:14:04.424Z,54.90
2022-09-01T17:16:39.775Z,55.40
2022-09-01T17:19:15.991Z,55.20
2022-09-01T17:21:53.101Z,55.30
2022-09-01T17:24:33.779Z,55.20
2022-09-01T17:29:52.801Z,55.70
2022-09-01T17:32:39.688Z,56.30
2022-09-01T17:35:19.496Z,55.60
2022-09-01T17:38:01.188Z,55.50
2022-09-01T17:40:35.579Z,56.10
2022-09-01T17:43:08.907Z,55.70
2022-09-01T17:45:51.191Z,56.20
2022-09-01T17:48:29.366Z,56.20
2022-09-01T17:51:08.687Z,56.40
2022-09-01T17:53:45.528Z,57.00
2022-09-01T17:56:29.283Z,56.60
2022-09-01T17:59:03.913Z,56.40
2022-09-01T18:01:44.264Z,56.70
2022-09-01T18:04:38.798Z,56.60
2022-09-01T18:07:16.934Z,56.80
2022-09-01T18:09:53.965Z,56.80
2022-09-01T18:12:28.277Z,57.00
2022-09-01T18:15:05.356Z,57.00
2022-09-01T18:17:36.124Z,57.30
2022-09-01T18:20:10.255Z,57.40
2022-09-01T18:22:48.370Z,57.40
2022-09-01T18:25:20.875Z,57.80
2022-09-01T18:33:26.699Z,58.10
2022-09-01T18:36:04.592Z,58.30
2022-09-01T18:38:44.050Z,58.70
2022-09-01T18:41:29.962Z,58.50
2022-09-01T18:44:07.846Z,59.30
2022-09-01T18:46:45.311Z,59.30
2022-09-01T18:49:30.694Z,59.90
2022-09-01T18:52:12.509Z,60.00
2022-09-01T18:54:53.901Z,60.60
2022-09-01T18:57:25.479Z,61.00
2022-09-01T19:00:12.499Z,61.40
2022-09-01T19:03:00.884Z,62.00
2022-09-01T19:05:48.064Z,63.50
2022-09-01T19:08:27.063Z,62.60
2022-09-01T19:11:04.704Z,63.20
2022-09-01T19:13:49.591Z,62.10
2022-09-01T19:16:30.298Z,63.30
2022-09-01T19:19:06.799Z,64.40
2022-09-01T19:21:35.688Z,64.50
2022-09-01T19:24:11.029Z,63.90
2022-09-01T19:26:44.482Z,64.20
2022-09-01T19:29:17.765Z,64.70
2022-09-01T19:31:49.561Z,65.00
2022-09-01T19:34:20.070Z,64.90
2022-09-01T19:37:00.139Z,65.10
2022-09-01T19:39:31.538Z,65.40
2022-09-01T19:42:06.127Z,65.70
2022-09-01T19:44:42.348Z,65.60
2022-09-01T19:47:15.878Z,65.80
2022-09-01T19:49:49.933Z,65.90
2022-09-01T19:52:29.834Z,66.10
2022-09-01T19:55:04.916Z,66.00
2022-09-01T19:57:40.855Z,65.70
2022-09-01T20:00:15.981Z,66.10
2022-09-01T20:02:51.389Z,65.70
2022-09-01T20:05:31.778Z,65.60
2022-09-01T20:08:04.011Z,65.80
2022-09-01T20:11:10.047Z,65.70
2022-09-01T20:17:38.385Z,66.50
2022-09-01T20:20:11.541Z,65.80
2022-09-01T20:22:55.623Z,66.70
2022-09-01T20:32:27.861Z,66.80
2022-09-01T20:35:00.229Z,66.60
2022-09-01T20:37:38.475Z,67.30
2022-09-01T20:40:10.357Z,67.30
2022-09-01T20:42:49.779Z,66.70
2022-09-01T20:45:19.987Z,67.00
2022-09-01T20:47:58.231Z,67.20
2022-09-01T20:50:34.097Z,67.10
2022-09-01T20:53:20.076Z,67.40
2022-09-01T20:55:55.556Z,64.50
2022-09-01T20:58:44.582Z,67.20
2022-09-01T21:01:19.904Z,67.30
2022-09-01T21:04:03.144Z,67.30
2022-09-01T21:06:51.445Z,67.70
2022-09-01T21:09:29.849Z,68.10
2022-09-01T21:12:24.225Z,68.80
2022-09-01T21:15:04.797Z,68.20
2022-09-01T21:17:41.267Z,68.10
2022-09-01T21:20:26.690Z,68.50
2022-09-01T21:22:57.180Z,67.80
2022-09-01T21:30:38.269Z,67.70
2022-09-01T21:35:42.806Z,67.30
2022-09-01T21:43:16.185Z,66.80
2022-09-01T21:45:56.392Z,65.70
2022-09-01T21:48:26.297Z,66.90
2022-09-01T21:53:28.946Z,66.90
2022-09-01T22:05:59.763Z,67.20
2022-09-01T22:08:28.678Z,68.10
2022-09-01T22:12:23.122Z,67.70
2022-09-01T22:14:39.340Z,68.40
2022-09-01T22:39:34.725Z,69.30
2022-09-01T22:56:59.811Z,70.00
2022-09-01T23:09:24.676Z,70.40
2022-09-01T23:11:53.085Z,70.60
2022-09-01T23:14:22.729Z,70.50
2022-09-01T23:16:51.974Z,70.80
2022-09-01T23:19:20.545Z,71.00
2022-09-01T23:21:49.061Z,71.20
2022-09-01T23:24:19.852Z,71.20
2022-09-01T23:26:48.862Z,71.40
2022-09-01T23:29:17.152Z,71.30
2022-09-01T23:31:48.065Z,71.30
2022-09-01T23:36:45.821Z,71.60
2022-09-01T23:41:43.277Z,71.90
2022-09-01T23:46:43.268Z,71.90
2022-09-01T23:49:14.755Z,72.00
2022-09-01T23:51:43.308Z,72.20
2022-09-01T23:56:41.299Z,72.10
